Time;durP1;ratioP1;P1;durP2;ratioP2;P2;SDS_P1;SDS_P2;PMS_P1;PMS_P2;Temp;Humidity;BMP_temperature;BMP_pressure;BME280_temperature;BME280_humidity;BME280_pressure;Samples;Min_cycle;Max_cycle;Signal;HPM_P1;HPM_P2
2022/10/18 00:00:05;;;;;;;18.80;10.60;;;;;;;8.60;79.17;101660.03;4987161;28;20065;-51
2022/10/18 00:02:32;;;;;;;25.38;10.88;;;;;;;8.55;79.33;101654.63;4987375;28;20489;-42
2022/10/18 00:04:58;;;;;;;23.08;10.50;;;;;;;8.45;79.40;101655.63;4990122;28;20575;-42
2022/10/18 00:07:25;;;;;;;26.75;10.75;;;;;;;8.37;79.65;101672.09;4990450;28;20065;-42
2022/10/18 00:09:52;;;;;;;22.08;10.25;;;;;;;8.33;79.89;101671.09;4990237;28;20420;-47
2022/10/18 00:12:18;;;;;;;24.63;10.32;;;;;;;8.26;79.92;101673.44;4990839;28;20416;-43
2022/10/18 00:14:49;;;;;;;26.05;9.55;;;;;;;8.31;80.13;101665.06;4987522;28;20054;-43
2022/10/18 00:17:16;;;;;;;20.33;10.23;;;;;;;8.34;79.86;101667.22;4988518;28;20743;-48
2022/10/18 00:19:43;;;;;;;19.60;8.63;;;;;;;8.33;79.96;101662.81;4983162;28;20047;-42
2022/10/18 00:22:09;;;;;;;22.50;10.73;;;;;;;8.34;79.83;101667.22;4988745;28;20046;-51
2022/10/18 00:24:36;;;;;;;19.15;9.15;;;;;;;8.33;80.15;101665.56;4978074;28;20046;-46
2022/10/18 00:27:03;;;;;;;16.25;7.30;;;;;;;8.35;79.97;101663.31;4968366;28;20042;-42
2022/10/18 00:29:30;;;;;;;13.27;7.25;;;;;;;8.38;79.82;101676.50;4987092;28;20038;-42
2022/10/18 00:31:56;;;;;;;10.70;5.15;;;;;;;8.38;79.69;101682.03;4986035;28;20046;-41
2022/10/18 00:34:23;;;;;;;14.55;7.72;;;;;;;8.34;79.68;101681.00;4990550;28;20046;-42
2022/10/18 00:36:50;;;;;;;13.23;6.45;;;;;;;8.34;79.78;101678.25;4989285;28;21676;-45
2022/10/18 00:39:20;;;;;;;11.75;5.57;;;;;;;8.27;79.78;101680.59;4989977;28;20064;-44
2022/10/18 00:41:47;;;;;;;14.05;6.13;;;;;;;8.24;79.93;101670.13;4989393;28;20412;-43
2022/10/18 00:44:15;;;;;;;11.55;4.68;;;;;;;8.22;80.06;101681.47;4983746;28;20043;-43
2022/10/18 00:46:45;;;;;;;16.38;6.28;;;;;;;8.25;80.23;101688.31;4988893;28;20039;-45
2022/10/18 00:49:23;;;;;;;10.60;5.18;;;;;;;8.29;80.11;101689.38;4987938;28;20062;-41
2022/10/18 00:52:03;;;;;;;12.32;6.20;;;;;;;8.28;79.83;101682.22;4982726;28;20042;-42
2022/10/18 00:54:32;;;;;;;10.32;5.20;;;;;;;8.24;79.74;101687.50;4989388;28;20058;-46
2022/10/18 00:57:00;;;;;;;8.85;5.18;;;;;;;8.21;79.82;101696.38;4988533;28;20046;-48
2022/10/18 00:59:27;;;;;;;9.48;5.20;;;;;;;8.15;80.00;101683.03;4988522;28;20046;-42
2022/10/18 01:01:54;;;;;;;11.98;7.15;;;;;;;8.13;80.15;101679.75;4987462;28;20042;-42
2022/10/18 01:04:22;;;;;;;11.30;5.00;;;;;;;8.03;80.05;101680.75;4986018;28;20050;-42
2022/10/18 01:07:00;;;;;;;14.55;5.60;;;;;;;7.99;80.26;101674.22;4989198;28;20506;-43
2022/10/18 01:09:48;;;;;;;11.27;5.32;;;;;;;8.00;80.53;101692.41;4983297;28;20065;-47
2022/10/18 01:12:40;;;;;;;13.25;6.57;;;;;;;8.04;80.44;101687.09;4988147;28;20057;-42
2022/10/18 01:15:15;;;;;;;12.48;5.25;;;;;;;8.09;80.28;101695.28;4985977;28;20050;-46
2022/10/18 01:18:06;;;;;;;11.23;4.65;;;;;;;8.07;80.20;101703.03;4986399;28;20058;-43
2022/10/18 01:20:50;;;;;;;13.43;4.40;;;;;;;8.03;80.14;101704.75;4999863;28;20056;-43
2022/10/18 01:23:32;;;;;;;11.27;5.28;;;;;;;7.98;80.24;101697.41;4988139;28;20050;-41
2022/10/18 01:26:28;;;;;;;13.35;4.75;;;;;;;7.94;80.48;101699.94;4987441;28;20144;-43
2022/10/18 01:29:30;;;;;;;11.32;5.10;;;;;;;7.88;80.69;101700.34;4986054;28;20046;-41
2022/10/18 01:32:15;;;;;;;10.45;5.63;;;;;;;7.92;80.45;101702.19;4977266;28;20474;-42
2022/10/18 01:34:44;;;;;;;15.43;5.22;;;;;;;7.91;80.33;101688.72;4987738;28;20046;-41
2022/10/18 01:37:16;;;;;;;21.27;6.47;;;;;;;7.88;80.70;101692.91;4988078;28;20046;-41
2022/10/18 01:39:46;;;;;;;15.75;5.25;;;;;;;7.83;80.67;101697.69;4988671;28;20435;-41
2022/10/18 01:42:17;;;;;;;15.68;5.80;;;;;;;7.81;80.61;101697.19;4989332;28;20480;-46
2022/10/18 01:44:46;;;;;;;14.13;4.97;;;;;;;7.78;80.75;101706.84;4988306;28;20109;-41
2022/10/18 01:47:14;;;;;;;10.27;4.85;;;;;;;7.77;80.64;101713.50;4986605;28;20085;-42
2022/10/18 01:49:41;;;;;;;8.15;5.00;;;;;;;7.78;80.87;101709.59;4989239;28;20055;-50
2022/10/18 01:52:15;;;;;;;10.98;4.68;;;;;;;7.78;80.95;101701.34;4988009;28;20042;-43
2022/10/18 01:54:49;;;;;;;9.98;4.45;;;;;;;7.77;80.90;101710.75;4987730;28;20046;-44
2022/10/18 01:57:39;;;;;;;16.27;5.47;;;;;;;7.76;81.05;101714.63;4989083;28;20401;-41
2022/10/18 02:00:15;;;;;;;13.45;6.20;;;;;;;7.74;81.01;101722.38;4987343;28;20055;-42
2022/10/18 02:03:09;;;;;;;22.08;7.22;;;;;;;7.70;80.78;101720.53;4987568;28;20038;-43
2022/10/18 02:05:47;;;;;;;9.68;5.88;;;;;;;7.70;80.99;101718.59;4987610;28;20531;-43
2022/10/18 02:08:29;;;;;;;15.20;5.30;;;;;;;7.62;81.02;101719.28;4965857;28;20094;-46
2022/10/18 02:11:01;;;;;;;12.82;5.70;;;;;;;7.58;81.00;101729.25;4974188;28;20058;-46
2022/10/18 02:13:39;;;;;;;13.80;5.68;;;;;;;7.60;81.14;101726.22;4989163;28;20408;-44
2022/10/18 02:16:22;;;;;;;9.52;5.68;;;;;;;7.59;81.09;101725.41;4990455;28;20452;-48
2022/10/18 02:18:59;;;;;;;12.82;6.13;;;;;;;7.55;81.17;101732.63;4990194;28;20050;-42
2022/10/18 02:21:28;;;;;;;12.80;6.05;;;;;;;7.48;81.07;101732.19;4989824;28;20481;-43
2022/10/18 02:23:58;;;;;;;10.15;5.43;;;;;;;7.45;81.34;101723.69;4991017;28;20066;-45
2022/10/18 02:26:24;;;;;;;14.80;6.13;;;;;;;7.45;81.37;101730.03;4986050;28;20065;-42
2022/10/18 02:28:51;;;;;;;10.90;5.78;;;;;;;7.42;81.62;101725.13;4988139;28;20053;-43
2022/10/18 02:31:25;;;;;;;12.52;6.07;;;;;;;7.41;81.64;101736.47;4988511;28;20488;-43
2022/10/18 02:34:06;;;;;;;16.60;6.88;;;;;;;7.34;81.53;101728.56;4981029;28;20050;-43
2022/10/18 02:36:45;;;;;;;16.98;6.43;;;;;;;7.34;81.82;101731.31;5000255;28;20148;-49
2022/10/18 02:39:18;;;;;;;11.85;5.50;;;;;;;7.40;81.64;101726.53;4988754;28;20141;-42
2022/10/18 02:41:46;;;;;;;13.63;5.95;;;;;;;7.35;81.54;101730.22;4986750;28;20281;-42
2022/10/18 02:44:12;;;;;;;9.00;5.60;;;;;;;7.36;81.59;101732.66;4991883;28;20049;-43
2022/10/18 02:46:40;;;;;;;11.00;5.75;;;;;;;7.39;81.91;101733.97;4987601;28;20500;-43
2022/10/18 02:49:08;;;;;;;13.07;5.32;;;;;;;7.40;81.72;101740.31;4988133;28;20050;-41
2022/10/18 02:51:34;;;;;;;10.90;4.80;;;;;;;7.40;81.69;101743.06;4982505;28;20050;-42
2022/10/18 02:54:02;;;;;;;12.20;6.38;;;;;;;7.40;81.53;101748.59;4989607;28;20046;-42
2022/10/18 02:56:28;;;;;;;11.00;4.65;;;;;;;7.42;81.57;101758.19;4989873;28;20050;-42
2022/10/18 02:58:55;;;;;;;9.15;5.38;;;;;;;7.43;81.33;101754.31;4989507;28;20069;-43
2022/10/18 03:01:22;;;;;;;10.88;5.25;;;;;;;7.40;81.52;101760.44;5032840;23;20349;-44
2022/10/18 03:03:49;;;;;;;7.63;4.68;;;;;;;7.38;81.54;101754.41;5016611;28;20971;-44
2022/10/18 03:06:15;;;;;;;11.73;5.22;;;;;;;7.35;81.55;101753.06;4989361;28;20041;-47
2022/10/18 03:08:42;;;;;;;12.23;4.57;;;;;;;7.34;81.68;101753.34;5007118;28;20056;-42
2022/10/18 03:11:09;;;;;;;9.63;4.30;;;;;;;7.32;81.55;101752.84;5018442;28;20050;-50
2022/10/18 03:13:35;;;;;;;8.35;4.50;;;;;;;7.33;81.60;101748.97;5014405;28;20049;-42
2022/10/18 03:16:02;;;;;;;9.38;5.60;;;;;;;7.38;81.58;101751.66;5013261;28;20049;-44
2022/10/18 03:18:29;;;;;;;7.88;4.78;;;;;;;7.36;81.39;101753.88;5027336;28;20562;-42
2022/10/18 03:20:55;;;;;;;13.48;4.03;;;;;;;7.38;81.29;101751.66;5013541;28;20053;-42
2022/10/18 03:23:22;;;;;;;12.52;4.10;;;;;;;7.40;81.30;101754.91;5013306;28;20104;-46
2022/10/18 03:25:49;;;;;;;9.18;3.67;;;;;;;7.34;81.24;101753.34;5013646;28;20049;-42
2022/10/18 03:28:16;;;;;;;7.78;3.85;;;;;;;7.29;81.31;101753.44;5015561;28;20041;-41
2022/10/18 03:30:42;;;;;;;7.10;3.15;;;;;;;7.27;81.52;101753.75;5016535;28;20617;-47
2022/10/18 03:33:09;;;;;;;8.15;4.18;;;;;;;7.28;81.45;101765.59;5017333;28;20120;-43
2022/10/18 03:35:36;;;;;;;9.15;3.90;;;;;;;7.24;81.57;101762.59;5014422;28;20048;-50
2022/10/18 03:38:02;;;;;;;5.00;3.03;;;;;;;7.21;81.68;101767.88;5012921;28;20060;-41
2022/10/18 03:40:29;;;;;;;6.90;3.38;;;;;;;7.21;81.74;101754.94;5030185;28;20514;-50
2022/10/18 03:43:01;;;;;;;5.05;2.67;;;;;;;7.18;81.58;101762.97;5003491;28;20057;-42
2022/10/18 03:45:28;;;;;;;6.30;3.10;;;;;;;7.18;81.84;101768.47;5011585;28;20372;-42
2022/10/18 03:47:57;;;;;;;8.63;3.55;;;;;;;7.18;81.74;101765.72;5010640;28;20041;-41
2022/10/18 03:50:23;;;;;;;10.13;3.60;;;;;;;7.17;81.86;101769.59;5015815;28;20052;-45
2022/10/18 03:52:50;;;;;;;12.80;3.00;;;;;;;7.15;81.58;101763.53;5014546;28;20042;-45
2022/10/18 03:55:17;;;;;;;5.00;2.15;;;;;;;7.15;81.83;101763.53;5010937;28;20068;-44
2022/10/18 03:57:44;;;;;;;10.13;2.88;;;;;;;7.13;81.61;101761.09;5008237;28;20053;-44
2022/10/18 04:00:11;;;;;;;6.20;2.83;;;;;;;7.11;81.69;101757.00;5015212;28;20037;-42
2022/10/18 04:02:38;;;;;;;8.27;3.10;;;;;;;7.10;81.95;101769.97;5012331;28;20080;-48
2022/10/18 04:05:06;;;;;;;7.93;3.33;;;;;;;7.12;81.93;101781.47;5011720;28;20042;-42
2022/10/18 04:07:34;;;;;;;8.85;4.45;;;;;;;7.13;81.81;101772.13;5012794;28;20046;-44
2022/10/18 04:10:02;;;;;;;6.13;2.70;;;;;;;7.16;81.94;101781.72;5014355;28;20059;-42
2022/10/18 04:12:28;;;;;;;5.82;2.72;;;;;;;7.18;81.71;101779.47;5011762;28;20047;-46
2022/10/18 04:14:56;;;;;;;4.22;2.55;;;;;;;7.20;81.49;101780.03;5016877;28;20045;-42
2022/10/18 04:17:22;;;;;;;3.90;2.40;;;;;;;7.20;81.55;101789.09;5023129;28;20049;-45
2022/10/18 04:19:49;;;;;;;7.43;2.67;;;;;;;7.17;81.58;101786.94;5028011;28;20124;-44
2022/10/18 04:22:16;;;;;;;5.90;2.60;;;;;;;7.13;81.58;101788.63;5026777;28;20050;-47
2022/10/18 04:24:42;;;;;;;8.48;2.58;;;;;;;7.12;81.87;101791.72;5028430;28;20053;-47
2022/10/18 04:27:09;;;;;;;5.25;2.45;;;;;;;7.12;81.70;101794.47;5029043;28;20037;-46
2022/10/18 04:29:36;;;;;;;7.32;2.97;;;;;;;7.08;81.56;101793.41;5027270;28;20487;-42
2022/10/18 04:32:03;;;;;;;7.93;2.70;;;;;;;7.04;81.64;101800.63;5027447;28;20042;-42
2022/10/18 04:34:29;;;;;;;9.30;2.88;;;;;;;6.99;81.74;101784.97;5016327;28;20514;-42
2022/10/18 04:36:56;;;;;;;7.88;3.25;;;;;;;6.95;82.06;101792.19;5032523;28;20045;-44
2022/10/18 04:39:23;;;;;;;3.75;2.10;;;;;;;6.94;82.12;101797.97;5018469;28;20406;-45
2022/10/18 04:41:49;;;;;;;3.45;2.08;;;;;;;6.90;82.05;101788.69;5016507;28;20073;-43
2022/10/18 04:44:16;;;;;;;6.03;2.47;;;;;;;6.89;81.97;101804.38;5014330;28;20049;-42
2022/10/18 04:46:43;;;;;;;6.85;2.33;;;;;;;6.87;82.38;101795.59;5013308;28;20049;-44
2022/10/18 04:49:11;;;;;;;7.03;2.53;;;;;;;6.88;82.22;101790.94;5012366;28;20055;-43
2022/10/18 04:51:37;;;;;;;6.60;2.45;;;;;;;6.90;82.20;101794.19;5013526;28;20467;-45
2022/10/18 04:54:04;;;;;;;7.75;2.92;;;;;;;6.88;82.44;101793.69;5013747;28;20710;-42
2022/10/18 04:56:35;;;;;;;7.65;2.83;;;;;;;6.83;82.33;101810.25;5011503;28;20041;-43
2022/10/18 04:59:01;;;;;;;7.38;2.63;;;;;;;6.80;82.27;101808.09;5011752;28;20052;-43
2022/10/18 05:01:28;;;;;;;4.60;2.80;;;;;;;6.81;82.37;101818.78;5011178;28;20045;-43
2022/10/18 05:03:55;;;;;;;7.28;2.33;;;;;;;6.79;82.50;101821.03;5013536;28;20041;-47
2022/10/18 05:06:22;;;;;;;3.10;2.03;;;;;;;6.81;82.31;101824.31;5013037;28;20418;-43
2022/10/18 05:08:49;;;;;;;5.50;2.42;;;;;;;6.83;82.52;101826.78;5010934;28;20415;-47
2022/10/18 05:11:15;;;;;;;9.20;2.97;;;;;;;6.83;82.33;101821.28;5012142;28;20136;-42
2022/10/18 05:13:42;;;;;;;8.73;2.40;;;;;;;6.81;82.26;101817.97;5013620;28;20048;-42
2022/10/18 05:16:14;;;;;;;9.57;2.63;;;;;;;6.81;82.36;101828.97;5012118;28;20052;-42
2022/10/18 05:18:42;;;;;;;6.03;2.63;;;;;;;6.80;82.47;101813.59;5015121;28;20123;-42
2022/10/18 05:21:08;;;;;;;5.55;3.13;;;;;;;6.82;82.12;101825.94;5012177;28;20145;-42
2022/10/18 05:23:35;;;;;;;5.10;2.40;;;;;;;6.80;82.18;101816.34;5014736;28;20053;-46
2022/10/18 05:26:06;;;;;;;5.38;2.58;;;;;;;6.75;82.41;101811.72;5010196;28;20586;-42
2022/10/18 05:28:33;;;;;;;9.23;3.08;;;;;;;6.74;82.51;101818.34;5011049;28;20633;-45
2022/10/18 05:31:07;;;;;;;5.53;2.35;;;;;;;6.70;82.61;101818.09;5013238;28;20052;-42
2022/10/18 05:33:34;;;;;;;5.60;2.53;;;;;;;6.73;82.85;101824.94;5014086;28;20071;-42
2022/10/18 05:36:01;;;;;;;7.15;3.25;;;;;;;6.73;82.62;101823.03;5010815;28;20075;-42
2022/10/18 05:38:29;;;;;;;6.40;2.90;;;;;;;6.70;82.64;101817.28;5009074;28;20041;-47
2022/10/18 05:40:57;;;;;;;10.50;2.97;;;;;;;6.69;83.04;101833.00;5010100;28;20055;-43
2022/10/18 05:43:27;;;;;;;11.40;3.08;;;;;;;6.72;82.83;101829.63;5013052;28;20144;-42
2022/10/18 05:45:54;;;;;;;9.27;3.38;;;;;;;6.70;82.55;101834.59;5013945;28;20057;-43
2022/10/18 05:48:21;;;;;;;3.88;2.35;;;;;;;6.67;82.80;101829.69;5009491;28;20065;-42
2022/10/18 05:50:49;;;;;;;5.40;2.35;;;;;;;6.65;82.74;101842.91;5010076;28;20081;-42
2022/10/18 05:53:16;;;;;;;9.30;2.47;;;;;;;6.60;82.77;101844.91;5013696;28;20164;-46
2022/10/18 05:56:03;;;;;;;7.80;2.78;;;;;;;6.59;nan;101855.09;5010653;28;20183;-43
2022/10/18 05:58:30;;;;;;;9.48;2.38;;;;;;;6.61;83.02;101852.06;5010213;28;20048;-47
2022/10/18 06:01:01;;;;;;;7.57;2.75;;;;;;;6.63;83.29;101845.16;5015468;28;20046;-42
2022/10/18 06:03:29;;;;;;;7.05;3.00;;;;;;;6.64;83.38;101852.31;5009569;28;20049;-42
2022/10/18 06:06:02;;;;;;;9.02;3.13;;;;;;;6.66;83.24;101860.25;5010737;28;21866;-42
2022/10/18 06:08:29;;;;;;;6.57;2.90;;;;;;;6.65;83.48;101855.84;5009785;28;20037;-47
2022/10/18 06:10:56;;;;;;;10.80;2.50;;;;;;;6.65;83.14;101864.94;5014125;28;20265;-43
2022/10/18 06:13:23;;;;;;;9.10;3.13;;;;;;;6.65;83.19;101870.44;5008539;28;20488;-46
2022/10/18 06:15:56;;;;;;;5.30;2.33;;;;;;;6.63;83.24;101858.91;5015149;28;20061;-46
2022/10/18 06:18:23;;;;;;;5.63;2.50;;;;;;;6.60;83.27;101866.91;5010066;28;20049;-42
2022/10/18 06:20:58;;;;;;;9.20;3.00;;;;;;;6.55;83.44;101865.06;5013254;28;20056;-50
2022/10/18 06:23:26;;;;;;;7.75;2.78;;;;;;;6.54;83.34;101860.66;5009497;28;20392;-46
2022/10/18 06:25:58;;;;;;;6.15;2.55;;;;;;;6.54;83.53;101862.59;5011167;28;20069;-43
2022/10/18 06:28:25;;;;;;;3.83;1.90;;;;;;;6.56;83.75;101863.94;5012083;28;20135;-42
2022/10/18 06:30:52;;;;;;;7.28;3.25;;;;;;;6.58;83.67;101864.47;5013912;28;20049;-46
2022/10/18 06:33:18;;;;;;;10.88;2.33;;;;;;;6.57;83.58;101867.50;5012233;28;20068;-42
2022/10/18 06:36:03;;;;;;;6.30;2.65;;;;;;;6.54;83.60;101868.91;5017299;28;20534;-44
2022/10/18 06:38:30;;;;;;;5.43;2.20;;;;;;;6.54;83.60;101868.91;5027204;28;20084;-45
2022/10/18 06:40:58;;;;;;;5.20;2.20;;;;;;;6.54;83.92;101874.41;5027565;28;20487;-42
2022/10/18 06:43:25;;;;;;;5.38;2.60;;;;;;;6.53;83.91;101878.28;5028151;28;20041;-42
2022/10/18 06:45:52;;;;;;;8.15;2.85;;;;;;;6.54;83.75;101879.91;5026972;28;20049;-42
2022/10/18 06:48:20;;;;;;;5.28;2.10;;;;;;;6.53;83.88;101883.78;5028117;28;20056;-42
2022/10/18 06:50:58;;;;;;;3.25;2.05;;;;;;;6.54;83.85;101876.34;5027170;28;20124;-43
2022/10/18 06:53:26;;;;;;;6.20;2.10;;;;;;;6.56;83.94;101876.88;5026946;28;20066;-43
2022/10/18 06:56:04;;;;;;;8.20;2.85;;;;;;;6.54;84.12;101882.66;5028252;28;20045;-43
2022/10/18 06:58:32;;;;;;;3.45;2.35;;;;;;;6.55;83.91;101880.72;5031347;28;20491;-42
2022/10/18 07:01:03;;;;;;;4.60;2.50;;;;;;;6.56;84.14;101883.22;5031149;28;20057;-49
2022/10/18 07:03:30;;;;;;;7.95;2.88;;;;;;;6.55;84.22;101887.06;5031436;28;20042;-42
2022/10/18 07:06:00;;;;;;;8.63;2.63;;;;;;;6.55;84.23;101889.81;5028587;28;20140;-44
2022/10/18 07:08:27;;;;;;;9.80;2.72;;;;;;;6.58;84.21;101892.00;5030884;28;20499;-42
2022/10/18 07:10:54;;;;;;;6.90;3.13;;;;;;;6.60;84.48;101895.25;5031607;28;20045;-43
2022/10/18 07:13:21;;;;;;;11.07;3.17;;;;;;;6.61;84.21;101901.59;5030871;28;20045;-42
2022/10/18 07:16:10;;;;;;;5.85;2.20;;;;;;;6.62;84.74;101890.28;5029466;28;20041;-42
2022/10/18 07:18:48;;;;;;;9.27;2.85;;;;;;;6.67;84.99;101895.72;5026291;28;20483;-42
2022/10/18 07:21:17;;;;;;;10.20;3.65;;;;;;;6.73;84.90;101893.75;5029692;28;20045;-42
2022/10/18 07:23:45;;;;;;;6.25;2.45;;;;;;;6.79;85.05;101900.03;5026350;28;20494;-42
2022/10/18 07:26:36;;;;;;;5.55;2.25;;;;;;;6.80;84.93;101891.50;5029863;28;20441;-42
2022/10/18 07:29:08;;;;;;;7.47;2.88;;;;;;;6.80;85.13;101894.25;5027460;28;20049;-42
2022/10/18 07:31:37;;;;;;;6.53;2.78;;;;;;;6.84;85.11;101894.47;5027815;28;20141;-43
2022/10/18 07:34:05;;;;;;;5.78;2.08;;;;;;;6.89;85.34;101900.72;5028798;28;20088;-43
2022/10/18 07:36:32;;;;;;;7.05;2.95;;;;;;;6.95;85.54;101902.31;5028933;28;20049;-43
2022/10/18 07:38:59;;;;;;;7.80;3.42;;;;;;;7.07;85.70;101904.66;5028934;28;20048;-42
2022/10/18 07:41:25;;;;;;;8.18;2.80;;;;;;;7.16;85.81;101919.41;5026684;28;20522;-42
2022/10/18 07:43:52;;;;;;;13.20;3.53;;;;;;;7.22;86.20;101918.25;5029573;28;20475;-42
2022/10/18 07:46:21;;;;;;;11.50;3.75;;;;;;;7.30;86.60;101925.88;5044692;28;20045;-42
2022/10/18 07:48:48;;;;;;;17.60;4.85;;;;;;;7.38;86.61;101921.63;5014234;28;20079;-45
2022/10/18 07:51:15;;;;;;;8.30;3.15;;;;;;;7.44;86.41;101937.00;5019415;28;20071;-47
2022/10/18 07:53:43;;;;;;;15.52;3.85;;;;;;;7.50;86.66;101942.13;5029094;28;20068;-42
2022/10/18 07:56:15;;;;;;;24.38;4.45;;;;;;;7.58;86.59;101932.38;5029840;28;20096;-46
2022/10/18 07:58:42;;;;;;;;;;;;;;;7.62;86.88;101937.00;5028744;28;20049;-43
2022/10/18 08:01:10;;;;;;;14.15;3.53;;;;;;;7.71;86.78;101943.50;5029598;28;19975;-42
2022/10/18 08:03:37;;;;;;;17.50;3.03;;;;;;;7.81;86.94;101948.06;5029181;28;20068;-42
2022/10/18 08:06:09;;;;;;;9.35;3.28;;;;;;;7.87;87.10;101961.47;5030439;28;20415;-42
2022/10/18 08:08:37;;;;;;;9.38;4.20;;;;;;;7.92;87.08;101972.41;5029971;28;20100;-42
2022/10/18 08:11:10;;;;;;;8.98;5.85;;;;;;;7.95;87.29;101962.72;5028647;28;20049;-43
2022/10/18 08:13:37;;;;;;;9.48;4.32;;;;;;;7.98;87.41;101968.47;5029505;28;20054;-42
2022/10/18 08:16:07;;;;;;;12.15;3.88;;;;;;;8.06;87.80;101974.41;5025164;28;20050;-42
2022/10/18 08:18:34;;;;;;;10.15;3.00;;;;;;;8.14;88.01;101979.25;5029509;28;20384;-42
2022/10/18 08:21:03;;;;;;;11.07;2.58;;;;;;;8.23;88.16;101974.72;5030667;28;20049;-42
2022/10/18 08:23:30;;;;;;;8.65;2.67;;;;;;;8.29;88.28;101977.13;5029571;28;20471;-46
2022/10/18 08:26:04;;;;;;;14.10;3.22;;;;;;;8.38;88.61;101991.06;5025582;28;20083;-43
2022/10/18 08:28:31;;;;;;;6.00;2.50;;;;;;;8.47;88.87;101992.03;5029158;28;20495;-42
2022/10/18 08:31:02;;;;;;;10.00;1.83;;;;;;;8.57;88.95;102005.66;5027804;28;20495;-42
2022/10/18 08:33:29;;;;;;;6.63;2.05;;;;;;;8.68;88.98;101998.84;5024442;28;20399;-42
2022/10/18 08:36:01;;;;;;;9.70;2.60;;;;;;;8.77;89.14;101999.78;5027183;28;20045;-42
2022/10/18 08:38:32;;;;;;;10.75;2.67;;;;;;;8.87;89.26;102004.34;5024372;28;20049;-42
2022/10/18 08:41:21;;;;;;;;;;;;;;;8.96;89.13;101995.03;5024140;28;20487;-46
2022/10/18 08:44:00;;;;;;;7.78;2.40;;;;;;;9.06;89.06;101996.78;5025578;28;19921;-43
2022/10/18 08:46:33;;;;;;;11.15;1.98;;;;;;;9.11;89.23;102005.78;5023985;28;20099;-42
2022/10/18 08:49:02;;;;;;;13.05;3.05;;;;;;;9.17;89.50;102007.34;5025653;28;20061;-46
2022/10/18 08:51:37;;;;;;;7.13;1.90;;;;;;;9.26;89.63;102009.41;5028051;28;20038;-43
2022/10/18 08:54:10;;;;;;;10.60;2.00;;;;;;;9.36;89.98;101998.97;5028030;28;20049;-44
2022/10/18 08:56:40;;;;;;;8.40;2.35;;;;;;;9.48;89.96;102003.97;5025709;28;20128;-42
2022/10/18 08:59:11;;;;;;;11.25;2.05;;;;;;;9.57;90.26;101996.59;5026840;28;20041;-49
2022/10/18 09:01:55;;;;;;;4.28;1.50;;;;;;;9.70;90.27;102006.84;5028954;28;20075;-48
2022/10/18 09:04:40;;;;;;;10.82;2.35;;;;;;;9.77;90.59;101998.94;5028232;28;20061;-42
2022/10/18 09:07:36;;;;;;;8.75;2.22;;;;;;;9.84;90.65;101996.59;5024996;28;20041;-42
2022/10/18 09:10:07;;;;;;;6.30;1.65;;;;;;;9.93;91.04;101994.72;5027406;28;20044;-43
2022/10/18 09:12:53;;;;;;;10.65;2.13;;;;;;;10.06;91.13;101987.53;5029085;28;20053;-43
2022/10/18 09:15:42;;;;;;;14.20;3.17;;;;;;;10.22;91.21;101986.88;5029349;28;20132;-42
2022/10/18 09:18:42;;;;;;;7.10;1.60;;;;;;;10.33;90.99;101987.44;5025948;28;20045;-43
2022/10/18 09:21:54;;;;;;;4.80;1.63;;;;;;;10.37;91.09;101989.31;5028978;28;20056;-42
2022/10/18 09:24:25;;;;;;;11.60;2.03;;;;;;;10.37;91.37;101981.00;4996994;28;20053;-43
2022/10/18 09:27:02;;;;;;;12.07;1.90;;;;;;;10.38;91.49;101985.38;5027958;28;20438;-43
2022/10/18 09:29:43;;;;;;;8.93;3.60;;;;;;;10.39;91.61;101986.22;5027625;28;20518;-42
2022/10/18 09:32:24;;;;;;;9.60;2.53;;;;;;;10.42;91.83;101995.84;5027796;28;20041;-43
2022/10/18 09:34:56;;;;;;;8.43;2.30;;;;;;;10.47;92.11;101991.00;5027207;28;20057;-44
2022/10/18 09:37:26;;;;;;;12.32;2.90;;;;;;;10.52;92.31;101990.88;5028912;28;20041;-43
2022/10/18 09:40:01;;;;;;;12.15;2.55;;;;;;;10.58;92.47;101984.09;5020140;28;20045;-43
2022/10/18 09:42:52;;;;;;;7.95;3.38;;;;;;;10.70;92.62;101975.19;5027520;28;20049;-43
2022/10/18 09:45:26;;;;;;;9.30;2.85;;;;;;;10.79;92.59;101985.19;5027806;28;20495;-47
2022/10/18 09:48:01;;;;;;;7.90;2.25;;;;;;;10.87;92.81;101976.13;5028218;28;20395;-44
2022/10/18 09:50:49;;;;;;;14.05;2.97;;;;;;;10.97;92.77;101981.38;5028284;28;20049;-44
2022/10/18 09:53:25;;;;;;;10.20;2.22;;;;;;;11.00;92.69;101974.41;5027940;28;20049;-44
2022/10/18 09:56:03;;;;;;;5.38;1.75;;;;;;;11.00;92.73;101982.72;5027548;28;20041;-43
2022/10/18 09:58:47;;;;;;;9.27;2.30;;;;;;;11.06;93.00;101983.38;5023128;28;20111;-50
2022/10/18 10:01:20;;;;;;;18.05;4.28;;;;;;;11.19;93.17;101986.06;5026636;28;20037;-44
2022/10/18 10:03:46;;;;;;;;;;;;;;;11.40;92.90;101980.75;5028331;28;20037;-45
2022/10/18 10:06:16;;;;;;;9.90;2.38;;;;;;;11.49;92.71;101979.66;5027346;28;19921;-44
2022/10/18 10:08:47;;;;;;;21.45;3.70;;;;;;;11.57;92.79;101986.34;5027136;28;20042;-44
2022/10/18 10:11:36;;;;;;;11.33;3.27;;;;;;;11.65;92.83;101982.00;5042938;28;20045;-45
2022/10/18 10:14:09;;;;;;;11.80;2.78;;;;;;;11.68;92.91;101984.91;5027301;28;20049;-43
2022/10/18 10:16:42;;;;;;;;;;;;;;;11.79;93.20;101979.91;5027670;28;20064;-44
2022/10/18 10:19:22;;;;;;;14.43;3.38;;;;;;;11.95;93.19;101990.25;5028479;28;19921;-44
2022/10/18 10:21:52;;;;;;;13.07;2.88;;;;;;;12.06;93.53;101979.63;5028890;28;20045;-47
2022/10/18 10:24:33;;;;;;;8.20;2.88;;;;;;;12.25;93.69;101984.88;5028413;28;20510;-44
2022/10/18 10:27:05;;;;;;;13.70;4.35;;;;;;;12.41;93.83;101981.28;5025773;28;20054;-43
2022/10/18 10:29:47;;;;;;;12.15;3.10;;;;;;;12.59;93.69;101971.78;5026604;28;20067;-44
2022/10/18 10:32:18;;;;;;;10.38;3.13;;;;;;;12.69;93.74;101985.34;5017248;28;20053;-44
2022/10/18 10:34:45;;;;;;;13.18;2.40;;;;;;;12.77;94.18;101986.47;5032310;28;20050;-44
2022/10/18 10:37:32;;;;;;;12.30;2.83;;;;;;;12.96;94.30;101986.09;5031430;28;20063;-44
2022/10/18 10:40:09;;;;;;;16.30;3.30;;;;;;;13.09;94.09;101991.50;5032081;28;20045;-44
2022/10/18 10:43:14;;;;;;;11.00;3.00;;;;;;;13.14;94.02;101993.28;5030720;28;20045;-44
2022/10/18 10:46:02;;;;;;;9.93;2.35;;;;;;;13.11;93.88;101991.16;5031190;28;20033;-44
2022/10/18 10:48:39;;;;;;;10.20;1.95;;;;;;;13.07;93.92;101992.97;5028130;28;20045;-44
2022/10/18 10:51:09;;;;;;;12.60;1.95;;;;;;;13.03;94.00;101992.78;5031025;28;20049;-44
2022/10/18 10:53:49;;;;;;;9.98;3.05;;;;;;;13.03;94.15;101997.50;5031470;28;20053;-44
2022/10/18 10:56:20;;;;;;;9.15;2.30;;;;;;;13.02;93.96;101988.38;5032218;28;20052;-45
2022/10/18 10:58:47;;;;;;;11.43;2.38;;;;;;;13.09;94.16;101985.09;5031045;28;20140;-45
2022/10/18 11:01:21;;;;;;;17.88;2.60;;;;;;;13.30;94.13;101988.78;5031692;28;20034;-44
2022/10/18 11:03:51;;;;;;;14.43;2.20;;;;;;;13.54;93.70;101991.78;5030660;28;20049;-44
2022/10/18 11:06:29;;;;;;;15.75;1.98;;;;;;;13.66;93.17;101986.31;5019213;28;20030;-44
2022/10/18 11:08:59;;;;;;;13.27;2.47;;;;;;;13.64;93.27;101991.41;5030818;28;20061;-44
2022/10/18 11:11:32;;;;;;;12.70;2.67;;;;;;;13.61;93.30;101997.66;5030542;28;20479;-44
2022/10/18 11:14:08;;;;;;;16.77;2.70;;;;;;;13.60;93.62;102000.78;5030627;28;20056;-45
2022/10/18 11:17:10;;;;;;;17.02;1.88;;;;;;;13.64;93.57;102007.28;5031765;28;20045;-48
2022/10/18 11:19:47;;;;;;;7.63;2.10;;;;;;;13.62;93.24;102004.03;5029494;28;20399;-44
2022/10/18 11:22:19;;;;;;;17.45;2.35;;;;;;;13.55;93.27;101998.19;5027153;28;20080;-48
2022/10/18 11:24:46;;;;;;;12.13;3.53;;;;;;;13.49;93.40;102000.34;5030560;28;20046;-44
2022/10/18 11:27:54;;;;;;;19.27;4.28;;;;;;;13.46;93.61;101998.22;5031177;28;20034;-51
2022/10/18 11:30:30;;;;;;;11.60;2.40;;;;;;;13.46;93.52;102009.34;4997183;28;20064;-44
2022/10/18 11:33:21;;;;;;;17.13;3.28;;;;;;;13.51;93.60;102017.50;5030657;28;20514;-46
2022/10/18 11:36:23;;;;;;;21.95;2.25;;;;;;;13.62;93.54;102007.63;5030076;28;20103;-43
2022/10/18 11:38:56;;;;;;;16.98;3.20;;;;;;;13.74;93.27;101996.59;5025902;28;20128;-47
2022/10/18 11:41:28;;;;;;;10.27;2.30;;;;;;;13.82;93.23;101998.50;5029633;28;20539;-44
2022/10/18 11:44:08;;;;;;;24.05;6.00;;;;;;;13.93;93.24;101998.94;5029743;28;20037;-44
2022/10/18 11:46:58;;;;;;;17.17;2.35;;;;;;;14.03;93.18;102006.91;5030192;28;20060;-45
2022/10/18 11:49:47;;;;;;;14.70;2.28;;;;;;;14.08;93.18;102000.31;5029085;28;20037;-44
2022/10/18 11:52:21;;;;;;;7.75;1.83;;;;;;;14.10;93.12;101998.00;5030045;28;20043;-45